createdAt,value
2023-05-06T00:00:07.089Z,4.2692
2023-05-06T00:01:10.139Z,4.4308
2023-05-06T00:02:12.999Z,4.4462
2023-05-06T00:03:15.982Z,4.4769
2023-05-06T00:04:18.934Z,4.5462
2023-05-06T00:05:21.968Z,4.3923
2023-05-06T00:06:24.818Z,4.7077
2023-05-06T00:07:27.777Z,4.4538
2023-05-06T00:08:30.703Z,4.6923
2023-05-06T00:09:33.695Z,4.5231
2023-05-06T00:10:36.606Z,4.2462
2023-05-06T00:11:39.573Z,4.0231
2023-05-06T00:12:42.506Z,3.8462
2023-05-06T00:13:45.469Z,4.0538
2023-05-06T00:14:48.495Z,4.2385
2023-05-06T00:15:51.424Z,4.1077
2023-05-06T00:16:54.346Z,4.3538
2023-05-06T00:17:57.484Z,4.6692
2023-05-06T00:19:00.387Z,4.4154
2023-05-06T00:20:03.204Z,4.7000
2023-05-06T00:21:06.165Z,4.4385
2023-05-06T00:22:09.089Z,4.4308
2023-05-06T00:23:12.053Z,4.7077
2023-05-06T00:24:15.037Z,5.0385
2023-05-06T00:25:17.969Z,4.8231
2023-05-06T00:26:20.896Z,4.8000
2023-05-06T00:27:23.845Z,4.6231
2023-05-06T00:28:26.800Z,4.5769
2023-05-06T00:29:29.742Z,4.4769
2023-05-06T00:30:32.736Z,4.3000
2023-05-06T00:31:35.771Z,4.4462
2023-05-06T00:32:38.659Z,4.3462
2023-05-06T00:33:41.584Z,4.3231
2023-05-06T00:34:44.661Z,4.6385
2023-05-06T00:35:47.546Z,4.3538
2023-05-06T00:36:50.410Z,4.4385
2023-05-06T00:37:53.386Z,4.4385
2023-05-06T00:38:56.376Z,4.4308
2023-05-06T00:39:59.346Z,4.4923
2023-05-06T00:41:02.229Z,4.6538
2023-05-06T00:42:05.176Z,4.9538
2023-05-06T00:43:08.126Z,4.5692
2023-05-06T00:44:11.077Z,4.7000
2023-05-06T00:45:14.024Z,4.8077
2023-05-06T00:46:17.070Z,4.8923
2023-05-06T00:47:19.947Z,4.7154
2023-05-06T00:48:23.015Z,4.9385
2023-05-06T00:49:25.820Z,4.9308
2023-05-06T00:50:28.785Z,4.5692
2023-05-06T00:51:31.750Z,4.5000
2023-05-06T00:52:34.714Z,4.3462
2023-05-06T00:53:37.649Z,4.5077
2023-05-06T00:54:40.604Z,4.5308
2023-05-06T00:55:43.605Z,4.2077
2023-05-06T00:56:46.533Z,4.3385
2023-05-06T00:57:49.447Z,4.2385
2023-05-06T00:58:52.393Z,4.2846
2023-05-06T00:59:55.349Z,4.7077
2023-05-06T01:00:58.303Z,4.6077
2023-05-06T01:02:01.376Z,4.6615
2023-05-06T01:03:04.335Z,4.6385
2023-05-06T01:04:07.196Z,4.8231
2023-05-06T01:05:10.379Z,5.0077
2023-05-06T01:06:13.052Z,4.7769
2023-05-06T01:07:16.013Z,4.5692
2023-05-06T01:08:19.168Z,4.6000
2023-05-06T01:09:21.936Z,4.6154
2023-05-06T01:10:24.879Z,4.6385
2023-05-06T01:11:27.820Z,4.8846
2023-05-06T01:12:30.766Z,4.8846
2023-05-06T01:13:33.721Z,4.9538
2023-05-06T01:14:36.660Z,4.6000
2023-05-06T01:15:39.621Z,4.7615
2023-05-06T01:16:42.617Z,4.5231
2023-05-06T01:17:45.521Z,4.9846
2023-05-06T01:18:48.450Z,4.7923
2023-05-06T01:19:51.446Z,4.6769
2023-05-06T01:20:54.382Z,4.7462
2023-05-06T01:21:57.364Z,4.7846
2023-05-06T01:23:00.305Z,4.6769
2023-05-06T01:24:03.206Z,4.5615
2023-05-06T01:25:06.203Z,4.4923
2023-05-06T01:26:09.099Z,4.5077
2023-05-06T01:27:12.060Z,4.2462
2023-05-06T01:28:15.005Z,4.1538
2023-05-06T01:29:17.909Z,4.2000
2023-05-06T01:30:20.859Z,4.0308
2023-05-06T01:31:23.837Z,3.7000
2023-05-06T01:32:26.768Z,3.7692
2023-05-06T01:33:29.691Z,3.8923
2023-05-06T01:34:32.644Z,3.7077
2023-05-06T01:35:35.591Z,3.8154
2023-05-06T01:36:38.531Z,4.1615
2023-05-06T01:37:41.581Z,4.0000
2023-05-06T01:38:44.413Z,4.2077
2023-05-06T01:39:47.392Z,4.1615
2023-05-06T01:40:50.304Z,4.1000
2023-05-06T01:41:53.253Z,4.2692
2023-05-06T01:42:56.207Z,4.2077
2023-05-06T01:43:59.156Z,4.4308
2023-05-06T01:45:02.137Z,4.3692
2023-05-06T01:46:05.044Z,4.0538
2023-05-06T01:47:07.998Z,4.0692
2023-05-06T01:48:10.930Z,4.2846
2023-05-06T01:49:13.869Z,4.3923
2023-05-06T01:50:16.844Z,4.2538
2023-05-06T01:51:19.764Z,4.2846
2023-05-06T01:52:22.704Z,4.3692
2023-05-06T01:53:25.706Z,3.9000
2023-05-06T01:54:28.565Z,3.9769
2023-05-06T01:55:31.583Z,4.1923
2023-05-06T01:56:34.453Z,3.9692
2023-05-06T01:57:37.403Z,3.8692
2023-05-06T01:58:40.358Z,3.5538
2023-05-06T01:59:43.288Z,3.6308
2023-05-06T02:00:46.252Z,3.9462
2023-05-06T02:01:49.209Z,3.8000
2023-05-06T02:02:52.241Z,3.9538
2023-05-06T02:03:55.120Z,4.2846
2023-05-06T02:04:58.038Z,4.2462
2023-05-06T02:06:01.033Z,4.0615
2023-05-06T02:07:03.888Z,4.0462
2023-05-06T02:08:06.822Z,4.3769
2023-05-06T02:09:09.836Z,4.1385
2023-05-06T02:10:12.744Z,4.0154
2023-05-06T02:11:15.661Z,4.1846
2023-05-06T02:12:18.628Z,3.9692
2023-05-06T02:13:21.600Z,3.4769
2023-05-06T02:14:24.498Z,4.0231
2023-05-06T02:15:27.565Z,4.0538
2023-05-06T02:16:30.394Z,4.1154
2023-05-06T02:17:33.381Z,4.0231
2023-05-06T02:18:36.312Z,3.7308
2023-05-06T02:19:39.204Z,3.0692
2023-05-06T02:20:42.165Z,2.9846
2023-05-06T02:21:45.101Z,2.9385
2023-05-06T02:22:48.111Z,3.5308
2023-05-06T02:23:51.041Z,3.6385
2023-05-06T02:24:53.993Z,3.6308
2023-05-06T02:25:56.864Z,4.0923
2023-05-06T02:26:59.815Z,4.1077
2023-05-06T02:28:02.762Z,4.1308
2023-05-06T02:29:05.711Z,3.6385
2023-05-06T02:30:08.648Z,3.6923
2023-05-06T02:31:11.620Z,3.7692
2023-05-06T02:32:14.576Z,3.8538
2023-05-06T02:33:17.510Z,4.0231
2023-05-06T02:34:20.439Z,4.0385
2023-05-06T02:35:23.397Z,4.0769
2023-05-06T02:36:26.344Z,3.9462
2023-05-06T02:37:29.262Z,4.0923
2023-05-06T02:38:32.216Z,4.0231
2023-05-06T02:39:35.214Z,4.3385
2023-05-06T02:40:38.157Z,4.4769
2023-05-06T02:41:41.073Z,4.5077
2023-05-06T02:42:44.031Z,4.4692
2023-05-06T02:43:46.933Z,4.5231
2023-05-06T02:44:49.871Z,4.5462
2023-05-06T02:45:52.828Z,4.6923
2023-05-06T02:46:55.764Z,4.5538
2023-05-06T02:47:58.762Z,4.6615
2023-05-06T02:49:01.644Z,4.7538
2023-05-06T02:50:04.591Z,4.4538
2023-05-06T02:51:07.562Z,4.5846
2023-05-06T02:52:10.475Z,4.6615
2023-05-06T02:53:13.453Z,4.4231
2023-05-06T02:54:16.345Z,4.6923
2023-05-06T02:55:19.305Z,4.3538
2023-05-06T02:56:22.314Z,4.4077
2023-05-06T02:57:25.178Z,4.4077
2023-05-06T02:58:28.151Z,4.6385
2023-05-06T02:59:31.071Z,4.8538
2023-05-06T03:00:34.120Z,4.6154
2023-05-06T03:01:37.104Z,4.6692
2023-05-06T03:02:39.913Z,4.5385
2023-05-06T03:03:42.834Z,4.7077
2023-05-06T03:04:45.769Z,4.8077
2023-05-06T03:05:48.730Z,4.5000
2023-05-06T03:06:51.660Z,4.7615
2023-05-06T03:07:54.618Z,4.6231
2023-05-06T03:08:57.538Z,4.4077
2023-05-06T03:10:00.519Z,4.7231
2023-05-06T03:11:03.437Z,4.6231
2023-05-06T03:12:06.394Z,4.5538
2023-05-06T03:13:09.560Z,4.3462
2023-05-06T03:14:12.262Z,4.2000
2023-05-06T03:15:15.257Z,4.3692
2023-05-06T03:16:18.185Z,4.4154
2023-05-06T03:17:21.087Z,4.6692
2023-05-06T03:18:24.052Z,4.5846
2023-05-06T03:19:26.958Z,4.6154
2023-05-06T03:20:29.910Z,4.8154
2023-05-06T03:21:32.873Z,4.9615
2023-05-06T03:22:35.871Z,4.8462
2023-05-06T03:23:38.753Z,4.7000
2023-05-06T03:24:41.689Z,4.7000
2023-05-06T03:25:44.629Z,5.1462
2023-05-06T03:26:47.584Z,5.6385
2023-05-06T03:27:50.525Z,5.3846
2023-05-06T03:28:53.497Z,6.1692
2023-05-06T03:29:56.396Z,5.6077
2023-05-06T03:30:59.430Z,5.3462
2023-05-06T03:32:02.383Z,5.1769
2023-05-06T03:33:05.403Z,4.9385
2023-05-06T03:34:08.249Z,4.3462
2023-05-06T03:35:11.498Z,4.7769
2023-05-06T03:36:14.141Z,4.2769
2023-05-06T03:37:17.071Z,4.5615
2023-05-06T03:38:20.018Z,4.7692
2023-05-06T03:39:22.989Z,4.7692
2023-05-06T03:40:25.890Z,4.7615
2023-05-06T03:41:28.855Z,5.3462
2023-05-06T03:42:31.784Z,5.2692
2023-05-06T03:43:34.850Z,5.1154
2023-05-06T03:44:37.677Z,5.0000
2023-05-06T03:45:40.606Z,4.9462
2023-05-06T03:46:43.667Z,5.0769
2023-05-06T03:47:46.826Z,5.3615
2023-05-06T03:48:49.416Z,5.2846
2023-05-06T03:49:52.391Z,5.2308
2023-05-06T03:50:55.293Z,5.5077
2023-05-06T03:51:58.242Z,5.5385
2023-05-06T03:53:01.178Z,5.5692
2023-05-06T03:54:04.113Z,5.6615
2023-05-06T03:55:07.230Z,5.7846
2023-05-06T03:56:10.017Z,5.6538
2023-05-06T03:57:12.940Z,5.8462
2023-05-06T03:58:15.878Z,6.0231
2023-05-06T03:59:18.893Z,6.4231
2023-05-06T04:00:21.786Z,6.2385
2023-05-06T04:01:24.700Z,5.7769
2023-05-06T04:02:27.705Z,5.6538
2023-05-06T04:03:30.692Z,6.2000
2023-05-06T04:04:33.529Z,6.2231
2023-05-06T04:05:36.632Z,6.1077
2023-05-06T04:06:39.434Z,6.0538
2023-05-06T04:07:42.379Z,6.2077
2023-05-06T04:08:45.344Z,6.3462
2023-05-06T04:09:48.238Z,5.8077
2023-05-06T04:10:51.245Z,5.7231
2023-05-06T04:11:54.112Z,5.7077
2023-05-06T04:12:57.109Z,5.7308
2023-05-06T04:14:00.081Z,5.3462
2023-05-06T04:15:03.030Z,5.6846
2023-05-06T04:16:05.933Z,5.5846
2023-05-06T04:17:08.870Z,6.0154
2023-05-06T04:18:11.798Z,5.8154
2023-05-06T04:19:14.884Z,5.6077
2023-05-06T04:20:17.682Z,5.7923
2023-05-06T04:21:20.654Z,6.2769
2023-05-06T04:22:23.595Z,6.6000
2023-05-06T04:23:26.572Z,6.4769
2023-05-06T04:24:29.469Z,6.5462
2023-05-06T04:25:32.408Z,6.8308
2023-05-06T04:26:35.332Z,6.7846
2023-05-06T04:27:38.296Z,6.7923
2023-05-06T04:28:41.226Z,6.7462
2023-05-06T04:29:44.213Z,6.7385
2023-05-06T04:30:47.182Z,6.7846
2023-05-06T04:31:50.121Z,6.4538
2023-05-06T04:32:53.047Z,6.1231
2023-05-06T04:33:55.939Z,6.3308
2023-05-06T04:34:58.900Z,6.3077
2023-05-06T04:36:01.882Z,6.3923
2023-05-06T04:37:04.798Z,6.2462
2023-05-06T04:38:07.735Z,6.0615
2023-05-06T04:39:10.683Z,5.6077
2023-05-06T04:40:13.730Z,5.7692
2023-05-06T04:41:16.578Z,4.9462
2023-05-06T04:42:19.507Z,4.7077
2023-05-06T04:43:22.470Z,4.7154
2023-05-06T04:44:25.415Z,5.2692
2023-05-06T04:45:28.386Z,5.2692
2023-05-06T04:46:31.426Z,5.3000
2023-05-06T04:47:34.300Z,5.2000
2023-05-06T04:48:37.193Z,5.3154
2023-05-06T04:49:40.192Z,5.3769
2023-05-06T04:50:43.089Z,5.2846
2023-05-06T04:51:46.045Z,5.1692
2023-05-06T04:52:48.963Z,5.2000
2023-05-06T04:53:51.909Z,5.5385
2023-05-06T04:54:54.889Z,5.6692
2023-05-06T04:55:57.800Z,6.1385
2023-05-06T04:57:00.776Z,6.5846
2023-05-06T04:58:03.703Z,6.4231
2023-05-06T04:59:06.627Z,6.4231
2023-05-06T05:00:09.783Z,6.0231
2023-05-06T05:01:12.554Z,5.8077
2023-05-06T05:02:15.580Z,5.5615
2023-05-06T05:03:18.452Z,5.2692
2023-05-06T05:04:21.367Z,5.1769
2023-05-06T05:05:24.313Z,5.2462
2023-05-06T05:06:27.250Z,5.4615
2023-05-06T05:07:30.190Z,5.5154
2023-05-06T05:08:33.137Z,5.8769
2023-05-06T05:09:36.102Z,5.3000
2023-05-06T05:10:39.057Z,5.8308
2023-05-06T05:11:41.943Z,5.9923
2023-05-06T05:12:44.902Z,6.0077
2023-05-06T05:13:47.836Z,6.0769
2023-05-06T05:14:50.770Z,5.9000
2023-05-06T05:15:53.754Z,5.5923
2023-05-06T05:16:56.699Z,5.6000
2023-05-06T05:17:59.676Z,5.7385
2023-05-06T05:19:03.727Z,5.8462
2023-05-06T05:20:05.496Z,5.8692
2023-05-06T05:21:08.478Z,5.8538
2023-05-06T05:22:11.391Z,5.8846
2023-05-06T05:23:14.340Z,6.4154
2023-05-06T05:24:17.321Z,6.4615
2023-05-06T05:25:20.225Z,6.1769
2023-05-06T05:26:23.212Z,6.4385
2023-05-06T05:27:26.103Z,6.7385
2023-05-06T05:28:29.038Z,6.4077
2023-05-06T05:29:32.050Z,6.2385
2023-05-06T05:30:34.943Z,6.2692
2023-05-06T05:31:37.965Z,6.4385
2023-05-06T05:32:40.881Z,6.1231
2023-05-06T05:33:43.831Z,6.1846
2023-05-06T05:34:46.692Z,6.0692
2023-05-06T05:35:49.674Z,5.9846
2023-05-06T05:36:52.571Z,6.1538
2023-05-06T05:37:55.518Z,5.9692
2023-05-06T05:38:58.466Z,6.4615
2023-05-06T05:40:01.404Z,6.4385
2023-05-06T05:41:04.428Z,6.1154
2023-05-06T05:42:07.291Z,6.4692
2023-05-06T05:43:10.237Z,6.4692
2023-05-06T05:44:13.171Z,6.6231
2023-05-06T05:45:16.151Z,6.8000
2023-05-06T05:46:19.113Z,6.4615
2023-05-06T05:47:21.997Z,6.6077
2023-05-06T05:48:24.965Z,6.3000
2023-05-06T05:49:27.998Z,6.4462
2023-05-06T05:50:30.863Z,6.4385
2023-05-06T05:51:33.772Z,6.1385
2023-05-06T05:52:36.737Z,6.5385
2023-05-06T05:53:39.703Z,6.5538
2023-05-06T05:54:42.605Z,6.5538
2023-05-06T05:55:45.530Z,6.4462
2023-05-06T05:56:48.501Z,6.4000
2023-05-06T05:57:51.431Z,6.5692
2023-05-06T05:58:54.415Z,6.2308
2023-05-06T05:59:57.311Z,6.4615
2023-05-06T06:01:00.266Z,6.2692
2023-05-06T06:02:03.213Z,6.1923
2023-05-06T06:03:06.460Z,6.1615
2023-05-06T06:04:09.142Z,6.1538
2023-05-06T06:05:12.205Z,5.8615
2023-05-06T06:06:14.985Z,5.8692
2023-05-06T06:07:17.936Z,5.9000
2023-05-06T06:08:20.860Z,5.7385
2023-05-06T06:09:23.814Z,5.5769
2023-05-06T06:10:26.850Z,5.5615
2023-05-06T06:11:29.713Z,5.6308
2023-05-06T06:12:32.678Z,5.7615
2023-05-06T06:13:35.592Z,5.4846
2023-05-06T06:14:38.545Z,5.0692
2023-05-06T06:15:41.473Z,5.0154
2023-05-06T06:16:44.452Z,5.0615
2023-05-06T06:17:47.388Z,5.4769
2023-05-06T06:18:50.298Z,5.4769
2023-05-06T06:19:53.248Z,5.0538
2023-05-06T06:20:56.277Z,4.8769
2023-05-06T06:21:59.158Z,5.0538
2023-05-06T06:23:02.104Z,4.9923
2023-05-06T06:24:05.057Z,5.0077
2023-05-06T06:25:08.126Z,4.8308
2023-05-06T06:26:12.318Z,4.6154
2023-05-06T06:27:13.888Z,4.0923
2023-05-06T06:28:16.822Z,3.9231
2023-05-06T06:29:19.759Z,4.2385
2023-05-06T06:30:22.709Z,4.0846
2023-05-06T06:31:25.685Z,4.1385
2023-05-06T06:32:28.659Z,4.5154
2023-05-06T06:33:31.593Z,4.3308
2023-05-06T06:34:34.511Z,3.9615
2023-05-06T06:35:37.434Z,4.0769
2023-05-06T06:36:40.465Z,4.0308
2023-05-06T06:37:43.323Z,4.0462
2023-05-06T06:38:46.311Z,4.1846
2023-05-06T06:39:49.304Z,3.9462
2023-05-06T06:40:52.188Z,3.8000
2023-05-06T06:41:55.199Z,3.7846
2023-05-06T06:42:58.055Z,3.5692
2023-05-06T06:44:01.042Z,3.3385
2023-05-06T06:45:03.965Z,3.3846
2023-05-06T06:46:06.891Z,3.5000
2023-05-06T06:47:09.858Z,3.5231
2023-05-06T06:48:12.814Z,3.2615
2023-05-06T06:49:15.708Z,3.0846
2023-05-06T06:50:18.696Z,3.1308
2023-05-06T06:51:21.603Z,3.2462
2023-05-06T06:52:24.646Z,3.2077
2023-05-06T06:53:27.480Z,3.0769
2023-05-06T06:54:30.427Z,3.1462
2023-05-06T06:55:33.437Z,3.1077
2023-05-06T06:56:36.427Z,3.3615
2023-05-06T06:57:39.325Z,3.1000
2023-05-06T06:58:42.202Z,2.9769
2023-05-06T06:59:45.167Z,3.0462
2023-05-06T07:00:48.144Z,3.0308
2023-05-06T07:01:51.057Z,3.0692
2023-05-06T07:02:54.063Z,3.0385
2023-05-06T07:03:56.963Z,3.2692
2023-05-06T07:04:59.905Z,3.5769
2023-05-06T07:06:02.843Z,3.6769
2023-05-06T07:07:05.748Z,3.7538
2023-05-06T07:08:08.760Z,3.8154
2023-05-06T07:09:11.702Z,4.1308
2023-05-06T07:10:14.585Z,4.1385
2023-05-06T07:11:17.554Z,4.0692
2023-05-06T07:12:20.473Z,4.2231
2023-05-06T07:13:23.547Z,4.4308
2023-05-06T07:14:26.348Z,4.3000
2023-05-06T07:15:29.333Z,4.2462
2023-05-06T07:16:32.254Z,4.2769
2023-05-06T07:17:35.235Z,4.1846
2023-05-06T07:18:38.147Z,3.9769
2023-05-06T07:19:41.106Z,4.0615
2023-05-06T07:20:44.036Z,3.8385
2023-05-06T07:21:47.030Z,3.4846
2023-05-06T07:22:49.960Z,3.3000
2023-05-06T07:23:53.064Z,4.4923
2023-05-06T07:24:55.830Z,4.0538
2023-05-06T07:25:58.768Z,3.8769
2023-05-06T07:27:01.751Z,3.6462
2023-05-06T07:28:04.679Z,3.6769
2023-05-06T07:29:07.645Z,4.0615
2023-05-06T07:30:10.609Z,3.2692
2023-05-06T07:31:13.569Z,3.1308
2023-05-06T07:32:16.476Z,3.1000
2023-05-06T07:33:19.467Z,2.9769
2023-05-06T07:34:22.386Z,2.9538
2023-05-06T07:35:25.311Z,3.0308
2023-05-06T07:36:28.363Z,2.9077
2023-05-06T07:37:31.239Z,2.9462
2023-05-06T07:38:34.296Z,2.9308
2023-05-06T07:39:37.247Z,2.8077
2023-05-06T07:40:40.151Z,2.6308
2023-05-06T07:41:43.100Z,2.6231
2023-05-06T07:42:46.031Z,2.4308
2023-05-06T07:43:49.031Z,2.7923
2023-05-06T07:44:51.971Z,2.8385
2023-05-06T07:45:54.919Z,2.7923
2023-05-06T07:46:58.234Z,2.6923
2023-05-06T07:48:00.858Z,2.6308
2023-05-06T07:49:03.929Z,3.3154
2023-05-06T07:50:06.748Z,3.0538
2023-05-06T07:51:09.642Z,3.3462
2023-05-06T07:52:12.653Z,4.3538
2023-05-06T07:53:15.535Z,2.7154
2023-05-06T07:54:18.503Z,2.7462
2023-05-06T07:55:21.512Z,2.9385
2023-05-06T07:56:24.419Z,2.7000
2023-05-06T07:57:27.394Z,2.5538
2023-05-06T07:58:30.441Z,2.8923
2023-05-06T07:59:33.295Z,2.9077
2023-05-06T08:00:36.195Z,2.6923
2023-05-06T08:01:39.176Z,2.7615
2023-05-06T08:02:42.291Z,2.6692
2023-05-06T08:03:45.198Z,3.3923
2023-05-06T08:04:49.476Z,2.8154
2023-05-06T08:05:50.911Z,2.8538
2023-05-06T08:06:53.870Z,2.5769
2023-05-06T08:07:56.827Z,2.6077
2023-05-06T08:08:59.745Z,2.6077
2023-05-06T08:10:02.699Z,2.6000
2023-05-06T08:11:05.704Z,2.4769
2023-05-06T08:12:08.617Z,2.5000
2023-05-06T08:13:11.569Z,2.4308
2023-05-06T08:14:14.464Z,2.5769
2023-05-06T08:15:17.457Z,2.4692
2023-05-06T08:16:20.923Z,2.4923
2023-05-06T08:17:23.389Z,2.5000
2023-05-06T08:18:26.430Z,2.4538
2023-05-06T08:19:29.193Z,2.5692
2023-05-06T08:20:32.152Z,2.5538
2023-05-06T08:21:35.112Z,2.3538
2023-05-06T08:22:38.072Z,2.6077
2023-05-06T08:23:41.004Z,2.4692
2023-05-06T08:24:43.937Z,2.4231
2023-05-06T08:25:46.909Z,2.3846
2023-05-06T08:26:49.885Z,2.4538
2023-05-06T08:27:52.772Z,2.4308
2023-05-06T08:28:55.714Z,2.5615
2023-05-06T08:29:58.682Z,2.5385
2023-05-06T08:31:01.611Z,2.5538
2023-05-06T08:32:04.616Z,2.5308
2023-05-06T08:33:07.594Z,2.5769
2023-05-06T08:34:10.530Z,2.6615
2023-05-06T08:35:13.666Z,2.6308
2023-05-06T08:36:16.373Z,2.5846
2023-05-06T08:37:19.338Z,2.5923
2023-05-06T08:38:22.289Z,2.4077
2023-05-06T08:39:25.291Z,2.3231
2023-05-06T08:40:28.204Z,2.5308
2023-05-06T08:41:31.243Z,2.3000
2023-05-06T08:42:34.202Z,2.3462
2023-05-06T08:43:37.062Z,2.4846
2023-05-06T08:44:39.996Z,2.5231
2023-05-06T08:45:43.061Z,2.4538
2023-05-06T08:46:45.946Z,2.4615
2023-05-06T08:47:48.969Z,2.4308
2023-05-06T08:48:51.839Z,2.5154
2023-05-06T08:49:54.837Z,2.3846
2023-05-06T08:50:57.755Z,2.4615
2023-05-06T08:52:00.765Z,2.1846
2023-05-06T08:53:03.667Z,2.1231
2023-05-06T08:54:06.638Z,2.1615
2023-05-06T08:55:09.938Z,1.9923
2023-05-06T08:56:12.500Z,2.4077
2023-05-06T08:57:15.420Z,2.0615
2023-05-06T08:58:18.466Z,2.3385
2023-05-06T08:59:21.360Z,2.3385
2023-05-06T09:00:24.273Z,2.3000
2023-05-06T09:01:27.297Z,2.2769
2023-05-06T09:02:30.288Z,2.2308
2023-05-06T09:03:33.206Z,2.0615
2023-05-06T09:04:36.106Z,1.9462
2023-05-06T09:05:39.034Z,2.1154
2023-05-06T09:06:41.991Z,2.0769
2023-05-06T09:07:45.002Z,2.0769
2023-05-06T09:08:47.861Z,2.1692
2023-05-06T09:09:50.814Z,2.2692
2023-05-06T09:10:53.954Z,2.3231
2023-05-06T09:11:56.750Z,2.3615
2023-05-06T09:12:59.736Z,2.2077
2023-05-06T09:14:02.665Z,2.3692
2023-05-06T09:15:05.560Z,1.9538
2023-05-06T09:16:08.528Z,1.8846
2023-05-06T09:17:11.552Z,2.2308
2023-05-06T09:18:14.736Z,2.3385
2023-05-06T09:19:17.442Z,2.4000
2023-05-06T09:20:20.341Z,2.2308
2023-05-06T09:21:23.295Z,2.2462
2023-05-06T09:22:26.239Z,2.2000
2023-05-06T09:23:29.202Z,2.0154
2023-05-06T09:24:32.135Z,2.2462
2023-05-06T09:25:35.210Z,2.1000
2023-05-06T09:26:38.071Z,1.9692
2023-05-06T09:27:41.098Z,1.9846
2023-05-06T09:28:43.951Z,1.9692
2023-05-06T09:29:46.987Z,2.0231
2023-05-06T09:30:49.987Z,1.7231
2023-05-06T09:31:52.832Z,1.5385
2023-05-06T09:32:55.856Z,1.4000
2023-05-06T09:33:58.804Z,1.4077
2023-05-06T09:35:01.721Z,1.5615
2023-05-06T09:36:04.641Z,1.5000
2023-05-06T09:37:07.583Z,1.5538
2023-05-06T09:38:10.605Z,1.4769
2023-05-06T09:39:13.616Z,1.5538
2023-05-06T09:40:16.509Z,1.6538
2023-05-06T09:41:19.400Z,1.6231
2023-05-06T09:42:22.446Z,1.5692
2023-05-06T09:43:25.358Z,1.5692
2023-05-06T09:44:28.293Z,1.5692
2023-05-06T09:45:31.296Z,1.7538
2023-05-06T09:46:34.193Z,1.8385
2023-05-06T09:47:37.200Z,1.5615
2023-05-06T09:48:40.081Z,1.5538
2023-05-06T09:49:43.064Z,1.7308
2023-05-06T09:50:45.983Z,1.6308
2023-05-06T09:51:48.973Z,1.6769
2023-05-06T09:52:51.906Z,1.8846
2023-05-06T09:53:54.851Z,1.8000
2023-05-06T09:54:57.803Z,1.7154
2023-05-06T09:56:00.774Z,1.8231
2023-05-06T09:57:03.729Z,1.7231
2023-05-06T09:58:06.666Z,1.6692
2023-05-06T09:59:09.647Z,1.6385
2023-05-06T10:00:12.685Z,1.5769
2023-05-06T10:01:25.204Z,1.6462
2023-05-06T10:02:18.602Z,1.5769
2023-05-06T10:03:21.563Z,1.4462
2023-05-06T10:04:25.594Z,1.5538
2023-05-06T10:05:27.425Z,1.6154
2023-05-06T10:06:30.297Z,1.6538
2023-05-06T10:07:33.312Z,1.6692
2023-05-06T10:08:36.262Z,1.6615
2023-05-06T10:09:39.177Z,1.6692
2023-05-06T10:10:42.291Z,1.5231
2023-05-06T10:11:45.084Z,1.4615
2023-05-06T10:12:48.085Z,1.5769
2023-05-06T10:13:50.985Z,1.5923
2023-05-06T10:14:53.930Z,1.5538
2023-05-06T10:15:56.911Z,1.5923
2023-05-06T10:16:59.893Z,1.6769
2023-05-06T10:18:02.825Z,1.5923
2023-05-06T10:19:05.766Z,1.6231
2023-05-06T10:20:08.699Z,1.7462
2023-05-06T10:21:11.739Z,1.6692
2023-05-06T10:22:14.618Z,1.6538
2023-05-06T10:23:17.547Z,1.5462
2023-05-06T10:24:20.592Z,1.6692
2023-05-06T10:25:23.457Z,1.6308
2023-05-06T10:26:26.397Z,1.4923
2023-05-06T10:27:29.366Z,1.5385
2023-05-06T10:28:32.320Z,1.4846
2023-05-06T10:29:35.396Z,1.5846
2023-05-06T10:30:38.195Z,1.6462
2023-05-06T10:31:41.202Z,1.8538
2023-05-06T10:32:44.209Z,1.7615
2023-05-06T10:33:47.146Z,1.6615
2023-05-06T10:34:50.031Z,2.9077
2023-05-06T10:35:52.986Z,2.3154
2023-05-06T10:36:55.922Z,2.1231
2023-05-06T10:37:58.868Z,1.7923
2023-05-06T10:39:01.824Z,1.6769
2023-05-06T10:40:04.786Z,1.5615
2023-05-06T10:41:07.727Z,1.7692
2023-05-06T10:42:10.655Z,1.7231
2023-05-06T10:43:13.643Z,2.1231
2023-05-06T10:44:16.724Z,2.4308
2023-05-06T10:45:19.526Z,2.8846
2023-05-06T10:46:22.537Z,3.9462
2023-05-06T10:47:25.439Z,2.7846
2023-05-06T10:48:28.469Z,1.9769
2023-05-06T10:49:31.348Z,1.8769
2023-05-06T10:50:34.309Z,1.7231
2023-05-06T10:51:37.243Z,1.6923
2023-05-06T10:52:40.186Z,1.5846
2023-05-06T10:53:43.177Z,1.7462
2023-05-06T10:54:46.093Z,1.7769
2023-05-06T10:55:49.036Z,2.1923
2023-05-06T10:56:52.006Z,1.8154
2023-05-06T10:57:54.931Z,1.7231
2023-05-06T10:58:57.893Z,1.6308
2023-05-06T11:00:00.865Z,1.7692
2023-05-06T11:01:03.837Z,1.7462
2023-05-06T11:02:06.780Z,1.7538
2023-05-06T11:03:09.832Z,1.7692
2023-05-06T11:04:12.667Z,1.6846
2023-05-06T11:05:15.571Z,2.3385
2023-05-06T11:06:18.584Z,3.6923
2023-05-06T11:07:21.503Z,4.2615
2023-05-06T11:08:24.470Z,4.6692
2023-05-06T11:09:27.389Z,3.9308
2023-05-06T11:10:30.363Z,1.9000
2023-05-06T11:11:33.370Z,1.8462
2023-05-06T11:12:36.326Z,1.7692
2023-05-06T11:13:39.226Z,1.8615
2023-05-06T11:14:42.200Z,1.8308
2023-05-06T11:15:45.152Z,1.7462
2023-05-06T11:16:48.126Z,1.6231
2023-05-06T11:17:51.091Z,1.8231
2023-05-06T11:18:54.029Z,1.6692
2023-05-06T11:19:57.040Z,1.6385
2023-05-06T11:20:59.948Z,1.5538
2023-05-06T11:22:02.912Z,1.8615
2023-05-06T11:23:05.847Z,1.8846
2023-05-06T11:24:08.816Z,1.8154
2023-05-06T11:25:11.771Z,2.4231
2023-05-06T11:26:14.733Z,1.9538
2023-05-06T11:27:17.673Z,1.7000
2023-05-06T11:28:20.589Z,1.6462
2023-05-06T11:29:23.550Z,1.8692
2023-05-06T11:30:26.496Z,1.6923
2023-05-06T11:31:29.609Z,1.5923
2023-05-06T11:32:32.855Z,1.6385
2023-05-06T11:33:35.346Z,1.7538
2023-05-06T11:34:38.343Z,1.8000
2023-05-06T11:35:41.317Z,1.6846
2023-05-06T11:36:44.254Z,1.8615
2023-05-06T11:37:47.242Z,1.5923
2023-05-06T11:38:50.353Z,1.7308
2023-05-06T11:39:53.146Z,18.6154
2023-05-06T11:40:56.067Z,32.2154
2023-05-06T11:41:58.996Z,3.4692
2023-05-06T11:43:01.952Z,5.7615
2023-05-06T11:44:04.931Z,2.5538
2023-05-06T11:45:07.892Z,3.2846
2023-05-06T11:46:10.837Z,3.0231
2023-05-06T11:47:13.874Z,3.8077
2023-05-06T11:48:16.872Z,3.1462
2023-05-06T11:49:19.862Z,1.7615
2023-05-06T11:50:22.830Z,2.3846
2023-05-06T11:51:25.792Z,1.9538
2023-05-06T11:52:28.806Z,1.7231
2023-05-06T11:53:31.630Z,1.8308
2023-05-06T11:54:34.568Z,2.1769
2023-05-06T11:55:37.525Z,2.2692
2023-05-06T11:56:40.489Z,1.7154
2023-05-06T11:57:43.467Z,1.9000
2023-05-06T11:58:46.502Z,2.1231
2023-05-06T11:59:49.372Z,5.0308
2023-05-06T12:00:52.331Z,4.5923
2023-05-06T12:01:55.277Z,5.7000
2023-05-06T12:02:58.283Z,7.4462
2023-05-06T12:04:01.250Z,2.9692
2023-05-06T12:05:04.186Z,5.9385
2023-05-06T12:06:07.085Z,4.2615
2023-05-06T12:07:10.136Z,5.6462
2023-05-06T12:08:23.577Z,5.4923
2023-05-06T12:09:15.962Z,2.2231
2023-05-06T12:10:18.921Z,4.1692
2023-05-06T12:11:21.874Z,1.9923
2023-05-06T12:12:24.895Z,3.9385
2023-05-06T12:13:27.811Z,4.8308
2023-05-06T12:14:30.766Z,2.9077
2023-05-06T12:15:33.724Z,1.9000
2023-05-06T12:16:36.800Z,2.2923
2023-05-06T12:17:39.664Z,3.0308
2023-05-06T12:18:42.659Z,11.5462
2023-05-06T12:19:45.562Z,11.6462
2023-05-06T12:20:48.498Z,11.0385
2023-05-06T12:21:51.506Z,5.0308
2023-05-06T12:22:55.549Z,8.6538
2023-05-06T12:23:57.426Z,8.7615
2023-05-06T12:25:00.309Z,3.1615
2023-05-06T12:26:03.296Z,3.3923
2023-05-06T12:27:06.304Z,6.1769
2023-05-06T12:28:09.183Z,7.9308
2023-05-06T12:29:12.132Z,6.4846
2023-05-06T12:30:15.113Z,3.9385
2023-05-06T12:31:18.056Z,2.7769
2023-05-06T12:32:20.984Z,4.0231
2023-05-06T12:33:23.965Z,4.6923
2023-05-06T12:34:26.911Z,4.9154
2023-05-06T12:35:29.850Z,5.8308
2023-05-06T12:36:32.821Z,4.7154
2023-05-06T12:37:35.749Z,3.4077
2023-05-06T12:38:38.770Z,4.0692
2023-05-06T12:39:41.662Z,1.9538
2023-05-06T12:40:44.701Z,1.5846
2023-05-06T12:41:47.579Z,1.7846
2023-05-06T12:42:50.562Z,1.6923
2023-05-06T12:43:53.464Z,1.9769
2023-05-06T12:44:56.406Z,2.1154
2023-05-06T12:45:59.441Z,3.0615
2023-05-06T12:47:02.365Z,4.5308
2023-05-06T12:48:05.272Z,4.4769
2023-05-06T12:49:08.315Z,4.2000
2023-05-06T12:50:11.459Z,4.0615
2023-05-06T12:51:14.159Z,3.8615
2023-05-06T12:52:17.074Z,3.5538
2023-05-06T12:53:20.034Z,2.9615
2023-05-06T12:54:23.008Z,3.3308
2023-05-06T12:55:26.034Z,3.1462
2023-05-06T12:56:28.958Z,3.2231
2023-05-06T12:57:31.916Z,2.8615
2023-05-06T12:58:34.780Z,2.0846
2023-05-06T12:59:37.752Z,1.6692
2023-05-06T13:00:40.783Z,1.9538
2023-05-06T13:01:43.646Z,2.9000
2023-05-06T13:02:46.744Z,2.7385
2023-05-06T13:03:49.660Z,2.6538
2023-05-06T13:04:52.519Z,2.4308